createdAt,value
2022-07-26T00:01:07.839Z,21.56
2022-07-26T00:03:36.038Z,21.56
2022-07-26T00:06:03.794Z,21.60
2022-07-26T00:08:31.571Z,21.57
2022-07-26T00:11:00.034Z,21.51
2022-07-26T00:13:35.599Z,21.34
2022-07-26T00:16:05.739Z,21.28
2022-07-26T00:18:34.179Z,21.31
2022-07-26T00:21:02.303Z,21.29
2022-07-26T00:23:30.331Z,21.08
2022-07-26T00:28:44.638Z,21.29
2022-07-26T00:31:14.584Z,21.16
2022-07-26T00:33:42.497Z,21.24
2022-07-26T00:36:10.679Z,21.11
2022-07-26T00:38:38.986Z,20.97
2022-07-26T00:41:08.047Z,20.84
2022-07-26T00:43:36.888Z,20.73
2022-07-26T00:46:04.913Z,20.75
2022-07-26T00:48:34.006Z,20.86
2022-07-26T00:51:02.155Z,20.97
2022-07-26T00:53:30.042Z,21.21
2022-07-26T00:55:58.127Z,21.34
2022-07-26T00:58:26.154Z,21.49
2022-07-26T01:00:54.882Z,21.53
2022-07-26T01:03:22.691Z,21.78
2022-07-26T01:05:58.484Z,21.97
2022-07-26T01:08:26.403Z,22.04
2022-07-26T01:10:54.761Z,21.89
2022-07-26T01:13:23.391Z,21.97
2022-07-26T01:15:51.496Z,21.94
2022-07-26T01:18:19.460Z,21.96
2022-07-26T01:20:48.313Z,21.79
2022-07-26T01:23:18.480Z,21.53
2022-07-26T01:25:46.305Z,21.34
2022-07-26T01:28:19.746Z,21.27
2022-07-26T01:30:49.718Z,21.30
2022-07-26T01:33:17.897Z,21.28
2022-07-26T01:35:46.128Z,21.16
2022-07-26T01:38:14.062Z,21.06
2022-07-26T01:40:43.561Z,20.97
2022-07-26T01:43:11.409Z,20.90
2022-07-26T01:45:39.557Z,20.83
2022-07-26T01:48:08.547Z,20.82
2022-07-26T01:50:37.261Z,20.79
2022-07-26T01:53:06.288Z,20.81
2022-07-26T01:55:34.586Z,20.87
2022-07-26T01:58:05.158Z,20.84
2022-07-26T02:00:33.509Z,20.78
2022-07-26T02:03:01.704Z,20.73
2022-07-26T02:05:30.009Z,20.70
2022-07-26T02:07:58.413Z,20.59
2022-07-26T02:10:49.703Z,20.53
2022-07-26T02:13:18.924Z,20.50
2022-07-26T02:15:47.128Z,20.52
2022-07-26T02:18:15.085Z,20.56
2022-07-26T02:20:43.192Z,20.71
2022-07-26T02:23:11.250Z,20.88
2022-07-26T02:25:39.442Z,21.07
2022-07-26T02:28:07.321Z,21.23
2022-07-26T02:30:36.827Z,21.30
2022-07-26T02:33:05.084Z,21.43
2022-07-26T02:35:33.088Z,21.52
2022-07-26T02:38:03.885Z,21.58
2022-07-26T02:40:32.110Z,21.65
2022-07-26T02:43:00.617Z,21.70
2022-07-26T02:45:28.647Z,21.76
2022-07-26T02:47:58.060Z,21.81
2022-07-26T02:50:27.945Z,21.82
2022-07-26T02:52:56.606Z,21.81
2022-07-26T02:55:26.262Z,21.84
2022-07-26T02:57:54.426Z,21.81
2022-07-26T03:00:24.298Z,21.79
2022-07-26T03:02:52.663Z,21.68
2022-07-26T03:05:22.514Z,21.60
2022-07-26T03:07:50.692Z,21.55
2022-07-26T03:10:18.885Z,21.59
2022-07-26T03:12:46.639Z,21.66
2022-07-26T03:15:14.549Z,21.71
2022-07-26T03:17:42.529Z,21.78
2022-07-26T03:20:12.413Z,21.87
2022-07-26T03:22:41.542Z,21.98
2022-07-26T03:25:10.052Z,22.09
2022-07-26T03:27:38.146Z,22.06
2022-07-26T03:30:07.011Z,22.06
2022-07-26T03:32:34.763Z,22.11
2022-07-26T03:35:02.947Z,22.17
2022-07-26T03:37:46.046Z,22.19
2022-07-26T03:40:16.386Z,22.17
2022-07-26T03:42:45.377Z,22.08
2022-07-26T03:45:14.312Z,22.02
2022-07-26T03:47:42.816Z,21.82
2022-07-26T03:50:13.788Z,21.56
2022-07-26T03:52:42.057Z,21.44
2022-07-26T03:55:24.914Z,21.06
2022-07-26T03:57:54.510Z,21.08
2022-07-26T04:00:24.447Z,21.19
2022-07-26T04:02:52.302Z,21.28
2022-07-26T04:05:23.424Z,20.98
2022-07-26T04:07:53.169Z,20.90
2022-07-26T04:10:22.595Z,21.02
2022-07-26T04:12:51.022Z,20.88
2022-07-26T04:15:21.388Z,20.79
2022-07-26T04:17:49.443Z,20.82
2022-07-26T04:20:17.860Z,20.91
2022-07-26T04:22:46.153Z,20.95
2022-07-26T04:25:14.467Z,21.01
2022-07-26T04:27:42.325Z,21.29
2022-07-26T04:30:15.059Z,21.46
2022-07-26T04:32:46.348Z,21.56
2022-07-26T04:35:16.279Z,21.40
2022-07-26T04:37:45.167Z,21.44
2022-07-26T04:40:18.013Z,21.33
2022-07-26T04:42:51.069Z,21.18
2022-07-26T04:45:19.261Z,21.04
2022-07-26T04:47:50.762Z,20.77
2022-07-26T04:50:19.955Z,20.55
2022-07-26T04:52:47.887Z,20.31
2022-07-26T04:55:15.782Z,20.36
2022-07-26T04:57:44.252Z,20.00
2022-07-26T05:00:23.009Z,19.82
2022-07-26T05:02:55.185Z,19.65
2022-07-26T05:05:24.890Z,19.90
2022-07-26T05:07:54.529Z,20.02
2022-07-26T05:10:24.399Z,20.51
2022-07-26T05:12:52.175Z,20.13
2022-07-26T05:15:20.804Z,19.95
2022-07-26T05:17:48.973Z,19.99
2022-07-26T05:20:19.217Z,19.95
2022-07-26T05:23:02.648Z,19.94
2022-07-26T05:25:30.565Z,20.10
2022-07-26T05:27:58.275Z,20.77
2022-07-26T05:30:26.254Z,20.94
2022-07-26T05:32:54.641Z,21.23
2022-07-26T05:35:24.510Z,21.77
2022-07-26T05:37:52.309Z,21.83
2022-07-26T05:40:20.759Z,21.35
2022-07-26T05:42:48.555Z,21.44
2022-07-26T05:45:16.642Z,21.55
2022-07-26T05:47:44.438Z,21.25
2022-07-26T05:50:12.693Z,21.22
2022-07-26T05:52:42.209Z,21.56
2022-07-26T05:55:11.077Z,21.69
2022-07-26T05:57:41.492Z,20.96
2022-07-26T06:00:10.749Z,21.60
2022-07-26T06:02:41.966Z,21.02
2022-07-26T06:05:10.971Z,21.67
2022-07-26T06:07:39.174Z,21.27
2022-07-26T06:10:09.784Z,21.64
2022-07-26T06:12:38.278Z,21.95
2022-07-26T06:15:14.917Z,21.78
2022-07-26T06:17:43.923Z,21.37
2022-07-26T06:20:12.436Z,20.97
2022-07-26T06:22:40.310Z,21.40
2022-07-26T06:25:10.185Z,22.02
2022-07-26T06:27:38.372Z,22.13
2022-07-26T06:30:08.323Z,21.72
2022-07-26T06:32:36.361Z,21.87
2022-07-26T06:35:04.742Z,22.15
2022-07-26T06:37:32.569Z,22.32
2022-07-26T06:40:00.742Z,22.38
2022-07-26T06:42:30.257Z,21.60
2022-07-26T06:44:58.392Z,21.81
2022-07-26T06:47:26.687Z,22.45
2022-07-26T06:49:54.769Z,22.79
2022-07-26T06:52:23.027Z,23.63
2022-07-26T06:54:51.202Z,24.16
2022-07-26T06:57:19.647Z,25.10
2022-07-26T06:59:49.219Z,24.49
2022-07-26T07:02:17.413Z,23.77
2022-07-26T07:04:45.593Z,23.47
2022-07-26T07:07:13.817Z,24.51
2022-07-26T07:09:42.554Z,24.86
2022-07-26T07:12:11.083Z,24.24
2022-07-26T07:14:39.575Z,24.69
2022-07-26T07:17:10.385Z,25.58
2022-07-26T07:19:41.313Z,26.16
2022-07-26T07:22:12.521Z,25.87
2022-07-26T07:24:41.609Z,25.75
2022-07-26T07:27:10.436Z,24.15
2022-07-26T07:29:41.099Z,24.59
2022-07-26T07:32:18.478Z,23.50
2022-07-26T07:34:48.178Z,23.67
2022-07-26T07:37:16.560Z,24.02
2022-07-26T07:39:44.875Z,23.75
2022-07-26T07:42:19.059Z,22.63
2022-07-26T07:44:46.975Z,22.15
2022-07-26T07:47:16.174Z,22.68
2022-07-26T07:49:44.496Z,22.64
2022-07-26T07:52:12.414Z,23.59
2022-07-26T07:54:40.481Z,24.24
2022-07-26T07:57:11.205Z,25.27
2022-07-26T07:59:42.828Z,26.39
2022-07-26T08:02:12.894Z,27.15
2022-07-26T08:04:42.145Z,28.11
2022-07-26T08:07:10.383Z,24.98
2022-07-26T08:09:42.991Z,23.65
2022-07-26T08:12:12.150Z,24.26
2022-07-26T08:14:39.835Z,26.86
2022-07-26T08:17:09.631Z,25.73
2022-07-26T08:19:41.634Z,26.71
2022-07-26T08:22:12.351Z,26.08
2022-07-26T08:24:41.411Z,26.31
2022-07-26T08:27:09.289Z,25.76
2022-07-26T08:29:37.399Z,25.16
2022-07-26T08:32:06.305Z,27.98
2022-07-26T08:34:34.458Z,30.75
2022-07-26T08:37:18.259Z,32.52
2022-07-26T08:39:48.670Z,32.50
2022-07-26T08:42:17.815Z,28.28
2022-07-26T08:44:52.572Z,27.81
2022-07-26T08:47:42.806Z,29.13
2022-07-26T08:50:11.194Z,28.16
2022-07-26T08:52:40.825Z,30.13
2022-07-26T08:55:11.903Z,27.34
2022-07-26T08:57:40.105Z,28.24
2022-07-26T09:00:22.644Z,28.60
2022-07-26T09:02:50.588Z,31.02
2022-07-26T09:05:20.871Z,29.99
2022-07-26T09:07:49.055Z,30.02
2022-07-26T09:10:18.336Z,26.93
2022-07-26T09:12:46.594Z,26.92
2022-07-26T09:15:23.589Z,26.00
2022-07-26T09:17:55.226Z,25.87
2022-07-26T09:20:25.938Z,26.83
2022-07-26T09:23:01.730Z,29.19
2022-07-26T09:25:34.288Z,27.75
2022-07-26T09:28:03.636Z,26.56
2022-07-26T09:30:33.353Z,27.13
2022-07-26T09:33:04.648Z,25.11
2022-07-26T09:35:52.261Z,25.48
2022-07-26T09:38:20.434Z,27.79
2022-07-26T09:40:51.113Z,29.96
2022-07-26T09:43:24.433Z,27.74
2022-07-26T09:46:07.420Z,25.46
2022-07-26T09:49:08.277Z,25.62
2022-07-26T09:51:37.991Z,27.01
2022-07-26T09:54:08.507Z,28.16
2022-07-26T09:56:46.333Z,28.86
2022-07-26T09:59:17.675Z,29.64
2022-07-26T10:01:46.591Z,30.27
2022-07-26T10:04:17.426Z,28.48
2022-07-26T10:06:46.224Z,28.94
2022-07-26T10:09:14.965Z,28.21
2022-07-26T10:11:49.028Z,28.31
2022-07-26T10:14:39.099Z,27.40
2022-07-26T10:17:46.813Z,28.30
2022-07-26T10:20:45.430Z,29.23
2022-07-26T10:23:36.213Z,29.08
2022-07-26T10:26:06.077Z,29.90
2022-07-26T10:28:37.589Z,27.77
2022-07-26T10:31:30.900Z,28.33
2022-07-26T10:34:00.951Z,26.25
2022-07-26T10:36:32.529Z,25.66
2022-07-26T10:39:12.301Z,26.32
2022-07-26T10:41:43.766Z,26.77
2022-07-26T10:44:19.816Z,27.08
2022-07-26T10:47:15.758Z,30.49
2022-07-26T10:49:54.770Z,30.15
2022-07-26T10:52:26.172Z,28.01
2022-07-26T10:55:15.372Z,28.03
2022-07-26T10:57:45.492Z,28.44
2022-07-26T11:00:18.784Z,31.54
2022-07-26T11:02:50.481Z,32.53
2022-07-26T11:05:19.890Z,30.93
2022-07-26T11:07:58.003Z,28.91
2022-07-26T11:10:28.943Z,28.98
2022-07-26T11:13:10.251Z,27.53
2022-07-26T11:15:44.189Z,27.06
2022-07-26T11:18:15.198Z,28.30
2022-07-26T11:20:45.232Z,28.34
2022-07-26T11:23:31.790Z,29.63
2022-07-26T11:26:02.454Z,30.59
2022-07-26T11:28:30.336Z,31.02
2022-07-26T11:31:00.589Z,33.18
2022-07-26T11:33:38.301Z,30.27
2022-07-26T11:36:07.457Z,27.61
2022-07-26T11:38:49.424Z,26.50
2022-07-26T11:41:20.084Z,26.01
2022-07-26T11:44:02.708Z,26.14
2022-07-26T11:46:38.608Z,26.26
2022-07-26T11:49:15.530Z,26.37
2022-07-26T11:51:50.685Z,30.35
2022-07-26T11:54:18.641Z,33.21
2022-07-26T11:56:58.054Z,33.63
2022-07-26T11:59:28.828Z,30.98
2022-07-26T12:01:59.829Z,29.49
2022-07-26T12:04:30.941Z,29.41
2022-07-26T12:07:01.116Z,27.90
2022-07-26T12:09:30.941Z,28.68
2022-07-26T12:11:58.879Z,32.31
2022-07-26T12:14:27.501Z,29.92
2022-07-26T12:16:56.099Z,27.37
2022-07-26T12:19:28.726Z,26.52
2022-07-26T12:22:00.142Z,26.73
2022-07-26T12:24:40.400Z,28.10
2022-07-26T12:27:10.876Z,28.17
2022-07-26T12:29:39.328Z,29.36
2022-07-26T12:32:21.451Z,34.76
2022-07-26T12:35:03.074Z,35.47
2022-07-26T12:37:39.755Z,32.32
2022-07-26T12:40:10.754Z,30.48
2022-07-26T12:42:40.946Z,27.42
2022-07-26T12:45:11.343Z,26.47
2022-07-26T12:47:41.763Z,26.59
2022-07-26T12:50:13.417Z,26.72
2022-07-26T12:52:42.609Z,26.52
2022-07-26T12:55:14.776Z,26.31
2022-07-26T12:57:47.287Z,27.25
2022-07-26T13:00:17.428Z,28.10
2022-07-26T13:02:46.389Z,26.95
2022-07-26T13:05:16.467Z,26.28
2022-07-26T13:07:44.707Z,28.46
2022-07-26T13:13:01.229Z,32.67
2022-07-26T13:15:35.912Z,32.01
2022-07-26T13:18:06.765Z,34.63
2022-07-26T13:20:38.237Z,34.89
2022-07-26T13:23:09.848Z,31.17
2022-07-26T13:25:40.518Z,28.90
2022-07-26T13:28:09.794Z,28.86
2022-07-26T13:30:39.551Z,28.96
2022-07-26T13:33:08.236Z,28.03
2022-07-26T13:35:38.942Z,29.29
2022-07-26T13:38:07.045Z,28.11
2022-07-26T13:40:35.250Z,27.23
2022-07-26T13:43:03.616Z,27.03
2022-07-26T13:45:31.917Z,26.53
2022-07-26T13:47:59.992Z,27.62
2022-07-26T13:50:29.696Z,30.64
2022-07-26T13:52:59.067Z,32.15
2022-07-26T13:55:27.335Z,29.93
2022-07-26T13:57:57.953Z,30.91
2022-07-26T14:00:27.620Z,30.96
2022-07-26T14:02:56.371Z,28.49
2022-07-26T14:05:24.384Z,29.62
2022-07-26T14:07:52.505Z,29.14
2022-07-26T14:10:22.190Z,29.50
2022-07-26T14:12:51.254Z,30.92
2022-07-26T14:15:23.171Z,32.16
2022-07-26T14:17:52.061Z,32.88
2022-07-26T14:20:21.040Z,29.61
2022-07-26T14:22:53.875Z,31.42
2022-07-26T14:25:23.955Z,31.75
2022-07-26T14:27:52.768Z,28.97
2022-07-26T14:30:21.425Z,31.89
2022-07-26T14:32:50.067Z,33.61
2022-07-26T14:35:18.508Z,34.41
2022-07-26T14:37:46.715Z,29.52
2022-07-26T14:40:16.807Z,28.17
2022-07-26T14:42:47.674Z,29.75
2022-07-26T14:45:16.413Z,30.30
2022-07-26T14:47:44.683Z,33.14
2022-07-26T14:50:13.986Z,30.58
2022-07-26T14:52:43.928Z,29.32
2022-07-26T14:55:12.247Z,28.27
2022-07-26T14:57:41.055Z,30.03
2022-07-26T15:00:14.725Z,30.80
2022-07-26T15:02:44.489Z,32.27
2022-07-26T15:05:13.838Z,34.82
2022-07-26T15:07:42.516Z,34.24
2022-07-26T15:10:12.901Z,30.95
2022-07-26T15:12:41.412Z,28.48
2022-07-26T15:15:12.433Z,28.08
2022-07-26T15:17:40.658Z,27.74
2022-07-26T15:20:10.187Z,28.00
2022-07-26T15:22:38.396Z,30.35
2022-07-26T15:25:07.272Z,31.33
2022-07-26T15:27:35.212Z,32.31
2022-07-26T15:30:07.080Z,32.95
2022-07-26T15:32:39.434Z,30.78
2022-07-26T15:35:14.127Z,34.05
2022-07-26T15:37:43.781Z,37.51
2022-07-26T15:40:12.841Z,34.27
2022-07-26T15:42:44.205Z,31.48
2022-07-26T15:45:14.150Z,29.56
2022-07-26T15:47:54.778Z,29.47
2022-07-26T15:50:26.532Z,28.58
2022-07-26T15:52:54.799Z,28.06
2022-07-26T15:55:22.720Z,27.88
2022-07-26T15:57:50.763Z,28.19
2022-07-26T16:00:19.353Z,31.28
2022-07-26T16:02:49.073Z,29.22
2022-07-26T16:05:17.600Z,30.47
2022-07-26T16:07:46.679Z,33.51
2022-07-26T16:10:16.276Z,35.55
2022-07-26T16:12:44.747Z,35.47
2022-07-26T16:15:13.546Z,35.20
2022-07-26T16:17:42.091Z,34.28
2022-07-26T16:20:12.200Z,31.76
2022-07-26T16:22:41.904Z,29.21
2022-07-26T16:25:13.210Z,28.31
2022-07-26T16:27:42.158Z,27.14
2022-07-26T16:30:11.251Z,27.63
2022-07-26T16:32:39.196Z,27.95
2022-07-26T16:35:08.191Z,28.16
2022-07-26T16:37:37.729Z,29.41
2022-07-26T16:40:08.164Z,32.05
2022-07-26T16:42:36.145Z,30.39
2022-07-26T16:45:03.928Z,30.62
2022-07-26T16:47:32.056Z,29.37
2022-07-26T16:49:59.870Z,29.10
2022-07-26T16:52:28.044Z,29.00
2022-07-26T16:54:57.566Z,28.25
2022-07-26T16:57:25.823Z,29.32
2022-07-26T16:59:53.944Z,28.87
2022-07-26T17:02:21.852Z,29.22
2022-07-26T17:04:50.030Z,28.89
2022-07-26T17:07:26.275Z,28.07
2022-07-26T17:09:55.211Z,27.43
2022-07-26T17:12:25.718Z,27.63
2022-07-26T17:14:54.512Z,27.28
2022-07-26T17:17:22.645Z,27.57
2022-07-26T17:19:50.845Z,26.90
2022-07-26T17:22:19.329Z,26.84
2022-07-26T17:24:48.206Z,27.01
2022-07-26T17:27:16.703Z,27.05
2022-07-26T17:29:46.421Z,26.54
2022-07-26T17:32:14.321Z,26.75
2022-07-26T17:34:42.808Z,26.56
2022-07-26T17:37:12.119Z,26.13
2022-07-26T17:39:51.975Z,26.15
2022-07-26T17:42:20.983Z,26.30
2022-07-26T17:44:51.590Z,26.33
2022-07-26T17:47:29.467Z,25.83
2022-07-26T17:52:50.058Z,25.68
2022-07-26T17:55:19.543Z,25.31
2022-07-26T17:57:49.583Z,25.30
2022-07-26T18:00:20.923Z,25.36
2022-07-26T18:02:50.202Z,25.37
2022-07-26T18:05:19.685Z,25.32
2022-07-26T18:07:47.818Z,25.21
2022-07-26T18:10:15.669Z,25.21
2022-07-26T18:12:43.718Z,25.05
2022-07-26T18:15:12.385Z,24.92
2022-07-26T18:17:41.651Z,24.80
2022-07-26T18:20:11.405Z,24.79
2022-07-26T18:22:40.068Z,24.71
2022-07-26T18:25:08.973Z,24.58
2022-07-26T18:27:37.341Z,24.46
2022-07-26T18:30:06.477Z,24.31
2022-07-26T18:32:35.570Z,24.36
2022-07-26T18:35:06.082Z,24.37
2022-07-26T18:37:34.575Z,24.30
2022-07-26T18:40:02.764Z,24.10
2022-07-26T18:42:31.014Z,24.06
2022-07-26T18:44:58.954Z,24.01
2022-07-26T18:47:26.841Z,23.86
2022-07-26T18:49:55.020Z,23.77
2022-07-26T18:55:01.997Z,23.64
2022-07-26T18:57:30.759Z,23.62
2022-07-26T18:59:58.650Z,23.64
2022-07-26T19:02:27.094Z,23.54
2022-07-26T19:04:55.048Z,23.48
2022-07-26T19:07:24.672Z,23.37
2022-07-26T19:09:57.839Z,23.26
2022-07-26T19:12:27.334Z,23.19
2022-07-26T19:14:55.507Z,23.26
2022-07-26T19:17:23.794Z,23.22
2022-07-26T19:19:52.003Z,23.27
2022-07-26T19:22:20.715Z,23.33
2022-07-26T19:24:50.203Z,23.26
2022-07-26T19:27:18.898Z,23.28
2022-07-26T19:29:47.105Z,23.25
2022-07-26T19:32:15.873Z,23.25
2022-07-26T19:34:43.785Z,23.23
2022-07-26T19:37:12.266Z,23.32
2022-07-26T19:39:40.392Z,23.51
2022-07-26T19:42:09.926Z,23.68
2022-07-26T19:44:38.174Z,23.73
2022-07-26T19:47:06.438Z,23.73
2022-07-26T19:49:34.805Z,23.73
2022-07-26T19:52:02.820Z,23.70
2022-07-26T19:54:31.757Z,23.54
2022-07-26T19:56:59.709Z,23.48
2022-07-26T19:59:29.030Z,23.36
2022-07-26T20:01:58.480Z,23.42
2022-07-26T20:04:27.456Z,23.31
2022-07-26T20:06:56.507Z,23.46
2022-07-26T20:09:24.476Z,23.33
2022-07-26T20:11:53.134Z,23.10
2022-07-26T20:14:21.490Z,22.95
2022-07-26T20:16:55.963Z,22.85
2022-07-26T20:19:26.890Z,23.01
2022-07-26T20:21:56.187Z,23.14
2022-07-26T20:24:24.409Z,23.06
2022-07-26T20:26:52.370Z,22.99
2022-07-26T20:29:20.693Z,22.96
2022-07-26T20:31:50.102Z,23.09
2022-07-26T20:34:18.236Z,23.07
2022-07-26T20:36:46.416Z,23.11
2022-07-26T20:39:15.282Z,23.17
2022-07-26T20:41:43.543Z,23.23
2022-07-26T20:44:12.475Z,22.97
2022-07-26T20:46:44.137Z,22.92
2022-07-26T20:49:13.758Z,22.78
2022-07-26T20:51:42.875Z,22.66
2022-07-26T20:54:11.047Z,22.62
2022-07-26T20:56:39.661Z,22.66
2022-07-26T20:59:08.567Z,22.73
2022-07-26T21:01:36.657Z,22.67
2022-07-26T21:04:05.245Z,22.61
2022-07-26T21:06:34.627Z,22.66
2022-07-26T21:09:10.097Z,22.70
2022-07-26T21:11:39.426Z,22.58
2022-07-26T21:14:07.859Z,22.37
2022-07-26T21:16:36.731Z,22.32
2022-07-26T21:19:05.957Z,22.43
2022-07-26T21:21:37.052Z,22.68
2022-07-26T21:24:06.493Z,22.75
2022-07-26T21:26:35.325Z,22.36
2022-07-26T21:29:03.347Z,22.40
2022-07-26T21:31:31.792Z,22.37
2022-07-26T21:34:00.451Z,22.27
2022-07-26T21:36:28.674Z,22.16
2022-07-26T21:38:58.255Z,22.26
2022-07-26T21:41:26.006Z,22.16
2022-07-26T21:43:53.823Z,22.10
2022-07-26T21:46:22.192Z,22.22
2022-07-26T21:48:50.253Z,22.10
2022-07-26T21:51:18.532Z,22.23
2022-07-26T21:53:46.768Z,22.33
2022-07-26T21:56:15.972Z,22.21
2022-07-26T21:58:43.796Z,22.00
2022-07-26T22:01:12.737Z,21.86
2022-07-26T22:03:43.404Z,21.83
2022-07-26T22:06:11.904Z,21.72
2022-07-26T22:08:40.293Z,21.74
2022-07-26T22:11:08.589Z,21.77
2022-07-26T22:13:37.931Z,21.76
2022-07-26T22:16:06.887Z,21.66
2022-07-26T22:18:34.743Z,21.75
2022-07-26T22:21:02.923Z,21.66
2022-07-26T22:23:31.205Z,21.59
2022-07-26T22:25:59.725Z,21.56
2022-07-26T22:28:27.864Z,21.51
2022-07-26T22:30:58.883Z,21.46
2022-07-26T22:33:27.515Z,21.39
2022-07-26T22:35:55.331Z,21.28
2022-07-26T22:38:23.936Z,21.25
2022-07-26T22:40:52.244Z,21.17
2022-07-26T22:43:20.377Z,21.13
2022-07-26T22:45:48.797Z,21.10
2022-07-26T22:48:18.090Z,21.06
2022-07-26T22:50:46.374Z,21.06
2022-07-26T22:53:14.395Z,20.96
2022-07-26T22:55:42.403Z,20.98
2022-07-26T22:58:16.339Z,20.85
2022-07-26T23:00:44.335Z,20.79
2022-07-26T23:03:19.625Z,20.61
2022-07-26T23:05:52.457Z,20.52
2022-07-26T23:11:08.726Z,20.38
2022-07-26T23:13:36.700Z,20.37
2022-07-26T23:16:04.746Z,20.23
2022-07-26T23:18:35.180Z,20.21
2022-07-26T23:21:04.648Z,20.20
2022-07-26T23:23:33.120Z,20.23
2022-07-26T23:26:01.579Z,20.22
2022-07-26T23:28:37.072Z,20.07
2022-07-26T23:31:08.721Z,20.05
2022-07-26T23:33:50.880Z,19.96
2022-07-26T23:36:23.877Z,19.94
2022-07-26T23:38:51.759Z,19.85
2022-07-26T23:41:20.091Z,19.82
2022-07-26T23:43:48.107Z,19.73
2022-07-26T23:46:16.448Z,19.72
2022-07-26T23:48:44.822Z,19.67
2022-07-26T23:51:12.667Z,19.73
2022-07-26T23:53:42.517Z,19.66
2022-07-26T23:56:10.737Z,19.55
2022-07-26T23:58:39.100Z,19.49
